Time;durP1;ratioP1;P1;durP2;ratioP2;P2;SDS_P1;SDS_P2;PMS_P1;PMS_P2;Temp;Humidity;BMP_temperature;BMP_pressure;BME280_temperature;BME280_humidity;BME280_pressure;Samples;Min_cycle;Max_cycle;Signal;HPM_P1;HPM_P2
2022/04/21 00:00:15;;;;;;;4.40;4.00;;;10.30;45.40;;;;;;4937233;29;20208;-63
2022/04/21 00:02:43;;;;;;;4.27;3.90;;;10.30;48.40;;;;;;4938316;29;20206;-63
2022/04/21 00:05:10;;;;;;;4.20;3.80;;;10.30;50.70;;;;;;4938473;29;20674;-62
2022/04/21 00:07:38;;;;;;;4.40;4.00;;;10.20;54.20;;;;;;4937523;29;20577;-62
2022/04/21 00:10:06;;;;;;;4.37;3.97;;;10.20;58.40;;;;;;4937468;29;20529;-63
2022/04/21 00:12:34;;;;;;;4.40;4.00;;;10.10;65.80;;;;;;4937026;29;20217;-62
2022/04/21 00:15:04;;;;;;;4.33;3.93;;;10.10;77.10;;;;;;4937191;29;20658;-62
2022/04/21 00:17:31;;;;;;;4.97;4.20;;;10.00;80.30;;;;;;4937030;29;20203;-62
2022/04/21 00:19:58;;;;;;;4.97;3.90;;;10.00;82.10;;;;;;4937307;29;20201;-61
2022/04/21 00:25:10;;;;;;;4.47;4.07;;;9.80;91.80;;;;;;4938131;29;20311;-62
2022/04/21 00:27:40;;;;;;;6.20;4.10;;;9.80;96.30;;;;;;4937527;29;20222;-61
2022/04/21 00:30:10;;;;;;;4.37;3.97;;;9.70;99.90;;;;;;4936518;29;20201;-61
2022/04/21 00:32:39;;;;;;;4.77;4.27;;;9.70;99.90;;;;;;4937240;28;20192;-62
2022/04/21 00:35:11;;;;;;;4.77;3.90;;;9.70;99.90;;;;;;4936857;29;20588;-61
2022/04/21 00:37:45;;;;;;;4.30;3.90;;;9.80;99.90;;;;;;4937009;29;20712;-62
2022/04/21 00:40:14;;;;;;;5.07;4.40;;;9.70;99.90;;;;;;4936610;29;20248;-62
2022/04/21 00:42:41;;;;;;;5.30;4.50;;;9.60;99.90;;;;;;4936680;29;20267;-62
2022/04/21 00:45:10;;;;;;;5.13;4.30;;;9.60;99.90;;;;;;4937011;29;20600;-62
2022/04/21 00:47:40;;;;;;;5.00;4.47;;;9.60;99.90;;;;;;4936673;29;20205;-62
2022/04/21 00:50:10;;;;;;;5.00;4.20;;;9.50;99.90;;;;;;4944393;29;20239;-62
2022/04/21 00:52:39;;;;;;;4.70;4.17;;;9.40;99.90;;;;;;4947101;29;20211;-62
2022/04/21 00:55:07;;;;;;;5.43;4.40;;;9.40;99.90;;;;;;4945436;29;20192;-63
2022/04/21 00:57:35;;;;;;;5.80;4.63;;;9.40;99.90;;;;;;4947622;28;20200;-62
2022/04/21 01:00:04;;;;;;;5.83;4.43;;;9.40;99.90;;;;;;4944248;28;20195;-62
2022/04/21 01:02:49;;;;;;;5.17;4.40;;;9.40;99.90;;;;;;4946971;28;20417;-62
2022/04/21 01:05:26;;;;;;;5.00;4.50;;;9.30;99.90;;;;;;4947503;29;20207;-62
2022/04/21 01:07:54;;;;;;;5.33;4.17;;;9.40;99.90;;;;;;4945806;28;20190;-62
2022/04/21 01:10:22;;;;;;;5.97;4.43;;;9.40;99.90;;;;;;4942618;28;20199;-67
2022/04/21 01:12:50;;;;;;;5.13;4.20;;;9.50;99.90;;;;;;4938843;29;20200;-62
2022/04/21 01:15:17;;;;;;;4.30;3.93;;;9.50;99.90;;;;;;4937916;28;20188;-61
2022/04/21 01:17:46;;;;;;;4.87;4.10;;;9.50;99.90;;;;;;4935639;29;20215;-62
2022/04/21 01:20:19;;;;;;;4.40;4.00;;;9.50;99.90;;;;;;4935760;29;20310;-62
2022/04/21 01:22:47;;;;;;;4.50;4.13;;;9.40;99.90;;;;;;4935550;29;20192;-62
2022/04/21 01:25:14;;;;;;;5.07;4.57;;;9.40;99.90;;;;;;4935629;29;20234;-62
2022/04/21 01:27:42;;;;;;;4.93;4.23;;;9.40;99.90;;;;;;4935954;29;20200;-61
2022/04/21 01:30:11;;;;;;;5.00;4.20;;;9.30;99.90;;;;;;4935478;29;20203;-62
2022/04/21 01:32:40;;;;;;;4.90;4.40;;;9.20;99.90;;;;;;4935262;29;20203;-61
2022/04/21 01:35:08;;;;;;;4.70;4.30;;;9.20;99.90;;;;;;4936222;29;20188;-62
2022/04/21 01:43:07;;;;;;;5.20;4.47;;;9.00;99.90;;;;;;4935513;29;20657;-62
2022/04/21 01:45:35;;;;;;;5.17;4.67;;;9.00;99.90;;;;;;4935144;29;20298;-62
2022/04/21 01:48:02;;;;;;;6.47;4.67;;;8.90;99.90;;;;;;4935608;29;20203;-62
2022/04/21 01:50:30;;;;;;;5.33;4.53;;;9.00;99.90;;;;;;4935765;29;20206;-62
2022/04/21 01:52:59;;;;;;;4.83;4.30;;;9.00;99.90;;;;;;4935493;29;20196;-62
2022/04/21 01:55:26;;;;;;;5.13;4.50;;;9.00;99.90;;;;;;4935435;29;20195;-62
2022/04/21 01:57:54;;;;;;;5.17;4.67;;;8.90;99.90;;;;;;4935679;29;20428;-62
2022/04/21 02:00:21;;;;;;;4.77;4.37;;;9.00;99.90;;;;;;4935776;29;20207;-62
2022/04/21 02:02:48;;;;;;;5.60;4.83;;;8.90;99.90;;;;;;4935554;29;20198;-64
2022/04/21 02:05:15;;;;;;;5.03;4.53;;;8.90;99.90;;;;;;4935627;29;20224;-61
2022/04/21 02:07:50;;;;;;;5.47;4.97;;;8.80;99.90;;;;;;4935531;29;20975;-62
2022/04/21 02:10:21;;;;;;;5.37;4.30;;;8.80;99.90;;;;;;4935571;29;20704;-62
2022/04/21 02:12:49;;;;;;;5.07;4.63;;;8.70;99.90;;;;;;4935664;29;20192;-61
2022/04/21 02:15:18;;;;;;;5.70;5.20;;;8.60;99.90;;;;;;4935154;29;20690;-62
2022/04/21 02:17:53;;;;;;;5.40;4.93;;;8.50;99.90;;;;;;4935905;29;20215;-62
2022/04/21 02:20:20;;;;;;;7.20;5.40;;;8.60;99.90;;;;;;4936016;29;20263;-62
2022/04/21 02:22:48;;;;;;;5.80;5.23;;;8.50;99.90;;;;;;4935700;29;20214;-62
2022/04/21 02:25:16;;;;;;;5.47;5.00;;;8.50;99.90;;;;;;4935352;29;20226;-62
2022/04/21 02:27:47;;;;;;;5.73;5.33;;;8.40;99.90;;;;;;4934906;29;20203;-61
2022/04/21 02:30:16;;;;;;;5.67;5.17;;;8.30;99.90;;;;;;4936197;29;20203;-62
2022/04/21 02:32:44;;;;;;;6.67;5.40;;;8.30;99.90;;;;;;4935945;29;20553;-61
2022/04/21 02:35:11;;;;;;;6.40;4.87;;;8.30;99.90;;;;;;4936023;29;20202;-62
2022/04/21 02:37:40;;;;;;;6.03;5.43;;;8.20;99.90;;;;;;4935403;29;20204;-62
2022/04/21 02:40:10;;;;;;;5.93;5.37;;;8.30;99.90;;;;;;4935388;29;20215;-64
2022/04/21 02:42:39;;;;;;;6.67;5.83;;;8.20;99.90;;;;;;4934736;29;20669;-65
2022/04/21 02:45:09;;;;;;;6.40;5.37;;;8.20;99.90;;;;;;4938054;29;20243;-65
2022/04/21 02:47:36;;;;;;;6.07;5.47;;;8.20;99.90;;;;;;4938611;29;20194;-65
2022/04/21 02:50:04;;;;;;;5.70;5.20;;;8.20;99.90;;;;;;4938622;29;20215;-64
2022/04/21 02:52:31;;;;;;;5.27;4.83;;;8.20;99.90;;;;;;4938605;29;20307;-65
2022/04/21 02:57:43;;;;;;;6.37;5.37;;;8.30;99.90;;;;;;4938269;29;20559;-65
2022/04/21 03:00:13;;;;;;;6.10;4.90;;;8.40;99.90;;;;;;4938356;29;20207;-64
2022/04/21 03:02:40;;;;;;;7.13;5.80;;;8.30;99.90;;;;;;4938387;29;20214;-64
2022/04/21 03:05:08;;;;;;;6.27;5.67;;;8.20;99.90;;;;;;4938494;29;20227;-64
2022/04/21 03:07:35;;;;;;;6.60;5.90;;;8.10;99.90;;;;;;4938115;29;20213;-65
2022/04/21 03:10:02;;;;;;;6.57;5.87;;;8.10;99.90;;;;;;4938251;29;20223;-64
2022/04/21 03:12:29;;;;;;;6.20;5.60;;;8.10;99.90;;;;;;4938339;29;20214;-65
2022/04/21 03:14:57;;;;;;;5.80;5.30;;;8.00;99.90;;;;;;4938147;29;20208;-64
2022/04/21 03:17:25;;;;;;;6.40;5.80;;;8.00;99.90;;;;;;4938348;29;20203;-65
2022/04/21 03:19:53;;;;;;;8.10;5.80;;;8.00;99.90;;;;;;4937991;29;20206;-64
2022/04/21 03:25:06;;;;;;;7.40;6.27;;;7.90;99.90;;;;;;4937882;29;20296;-64
2022/04/21 03:27:34;;;;;;;7.57;6.40;;;7.90;99.90;;;;;;4937602;29;20683;-64
2022/04/21 03:30:01;;;;;;;7.07;6.33;;;7.80;99.90;;;;;;4937822;29;20213;-64
2022/04/21 03:32:30;;;;;;;7.30;6.70;;;7.80;99.90;;;;;;4937872;29;20215;-64
2022/04/21 03:34:59;;;;;;;8.20;7.40;;;7.80;99.90;;;;;;4937459;29;20668;-64
2022/04/21 03:37:26;;;;;;;10.27;8.60;;;7.80;99.90;;;;;;4937564;29;20257;-64
2022/04/21 03:39:53;;;;;;;9.03;8.23;;;7.80;99.90;;;;;;4937687;29;20214;-64
2022/04/21 03:42:23;;;;;;;10.57;8.40;;;7.70;99.90;;;;;;4937262;29;20202;-64
2022/04/21 03:44:50;;;;;;;10.17;9.17;;;7.60;99.90;;;;;;4937689;29;20209;-64
2022/04/21 03:47:17;;;;;;;10.30;9.40;;;7.70;99.90;;;;;;4938297;29;20198;-64
2022/04/21 03:49:45;;;;;;;9.63;8.77;;;7.70;99.90;;;;;;4937659;29;20198;-64
2022/04/21 03:52:12;;;;;;;9.30;8.40;;;7.80;99.90;;;;;;4937358;29;20206;-65
2022/04/21 03:54:41;;;;;;;8.80;8.00;;;7.60;99.90;;;;;;4937529;29;20566;-64
2022/04/21 03:57:08;;;;;;;8.87;8.07;;;7.60;99.90;;;;;;4937178;29;20301;-65
2022/04/21 03:59:36;;;;;;;9.67;8.77;;;7.60;99.90;;;;;;4937275;29;20291;-64
2022/04/21 04:02:04;;;;;;;9.00;8.20;;;7.60;99.90;;;;;;4937361;29;20220;-64
2022/04/21 04:04:31;;;;;;;8.43;7.63;;;7.50;99.90;;;;;;4937768;29;20206;-64
2022/04/21 04:12:32;;;;;;;9.33;7.23;;;7.50;99.90;;;;;;4937086;29;20194;-64
2022/04/21 04:14:59;;;;;;;9.73;7.60;;;7.50;99.90;;;;;;4937096;29;20209;-64
2022/04/21 04:17:27;;;;;;;9.27;7.20;;;7.50;99.90;;;;;;4937224;29;20198;-64
2022/04/21 04:19:54;;;;;;;9.73;7.00;;;7.50;99.90;;;;;;4936995;29;20201;-65
2022/04/21 04:22:22;;;;;;;7.83;7.00;;;7.50;99.90;;;;;;4936963;29;20287;-64
2022/04/21 04:24:53;;;;;;;7.33;6.70;;;7.60;99.90;;;;;;4936885;29;20240;-64
2022/04/21 04:27:20;;;;;;;7.30;6.60;;;7.60;99.90;;;;;;4936860;29;20190;-65
2022/04/21 04:29:47;;;;;;;7.50;6.70;;;7.60;99.90;;;;;;4936718;29;20629;-64
2022/04/21 04:32:15;;;;;;;7.10;6.23;;;7.50;99.90;;;;;;4936748;29;20201;-64
2022/04/21 04:34:42;;;;;;;7.60;6.90;;;7.50;99.90;;;;;;4936952;29;20200;-64
2022/04/21 04:37:09;;;;;;;7.23;6.53;;;7.60;99.90;;;;;;4936274;29;20672;-64
2022/04/21 04:39:37;;;;;;;7.27;6.60;;;7.60;99.90;;;;;;4936748;29;20202;-64
2022/04/21 04:42:17;;;;;;;6.77;6.07;;;7.60;99.90;;;;;;4936771;29;20210;-64
2022/04/21 04:44:44;;;;;;;7.37;6.67;;;7.60;99.90;;;;;;4936583;29;20200;-69
2022/04/21 04:47:10;;;;;;;7.20;6.10;;;7.60;99.90;;;;;;4938751;29;20533;-63
2022/04/21 04:49:37;;;;;;;6.87;6.17;;;7.60;99.90;;;;;;4936806;29;20225;-64
2022/04/21 04:52:05;;;;;;;10.03;6.60;;;7.60;99.90;;;;;;4936411;29;20680;-64
2022/04/21 04:54:32;;;;;;;9.87;6.43;;;7.60;99.90;;;;;;4936431;29;20203;-66
2022/04/21 04:57:01;;;;;;;8.13;6.63;;;7.60;99.90;;;;;;4936368;29;20203;-67
2022/04/21 04:59:29;;;;;;;7.47;6.10;;;7.60;99.90;;;;;;4936269;29;20312;-64
2022/04/21 05:01:56;;;;;;;6.93;6.27;;;7.70;99.90;;;;;;4936019;29;20216;-65
2022/04/21 05:04:24;;;;;;;6.83;6.13;;;7.70;99.90;;;;;;4935448;29;20213;-65
2022/04/21 05:06:53;;;;;;;8.53;6.00;;;7.80;99.90;;;;;;4934782;29;20238;-65
2022/04/21 05:09:22;;;;;;;8.10;6.27;;;7.80;99.90;;;;;;4936255;29;20221;-64
2022/04/21 05:11:51;;;;;;;10.00;7.20;;;7.80;99.90;;;;;;4936143;29;20561;-65
2022/04/21 05:14:21;;;;;;;7.97;6.40;;;7.90;99.90;;;;;;4935537;29;20203;-65
2022/04/21 05:16:48;;;;;;;8.03;6.43;;;8.10;99.90;;;;;;4935108;29;20206;-66
2022/04/21 05:19:17;;;;;;;9.40;6.33;;;8.20;99.90;;;;;;4935296;29;20248;-65
2022/04/21 05:21:45;;;;;;;11.80;6.67;;;8.30;99.90;;;;;;4935816;29;20203;-66
2022/04/21 05:24:13;;;;;;;10.33;6.17;;;8.40;99.90;;;;;;4934785;29;20214;-65
2022/04/21 05:26:41;;;;;;;12.10;6.20;;;8.40;99.90;;;;;;4935067;29;20219;-65
2022/04/21 05:31:56;;;;;;;8.63;6.60;;;8.60;99.90;;;;;;4935564;29;20254;-65
2022/04/21 05:34:25;;;;;;;7.93;6.00;;;8.60;99.90;;;;;;4936627;29;20201;-64
2022/04/21 05:36:52;;;;;;;7.30;6.30;;;8.70;99.90;;;;;;4937556;29;20195;-65
2022/04/21 05:39:20;;;;;;;7.17;6.07;;;8.70;99.90;;;;;;4935626;29;20600;-65
2022/04/21 05:41:48;;;;;;;9.13;6.80;;;8.90;99.90;;;;;;4935443;29;20213;-66
2022/04/21 05:44:15;;;;;;;8.77;6.00;;;9.10;99.90;;;;;;4935467;29;20209;-65
2022/04/21 05:46:43;;;;;;;9.07;5.80;;;9.80;99.90;;;;;;4935327;29;20270;-69
2022/04/21 05:49:12;;;;;;;7.80;5.20;;;10.70;99.90;;;;;;4935263;29;20567;-67
2022/04/21 05:51:41;;;;;;;9.47;5.40;;;11.10;99.90;;;;;;4935607;29;20204;-68
2022/04/21 05:54:08;;;;;;;8.87;5.63;;;11.60;99.90;;;;;;4934777;29;20544;-68
2022/04/21 05:56:37;;;;;;;8.37;5.70;;;11.70;99.90;;;;;;4935895;29;20238;-66
2022/04/21 05:59:04;;;;;;;10.13;6.23;;;11.80;99.90;;;;;;4934806;29;20681;-67
2022/04/21 06:01:32;;;;;;;10.30;6.20;;;12.10;99.90;;;;;;4935628;29;20291;-68
2022/04/21 06:03:59;;;;;;;6.17;5.47;;;12.50;99.90;;;;;;4935728;29;20207;-67
2022/04/21 06:06:27;;;;;;;5.93;5.30;;;12.90;99.90;;;;;;4938508;29;20219;-67
2022/04/21 06:08:54;;;;;;;6.80;6.07;;;13.10;99.90;;;;;;4941232;29;20218;-70
2022/04/21 06:11:22;;;;;;;7.60;5.60;;;13.00;99.90;;;;;;4945957;28;20254;-66
2022/04/21 06:13:50;;;;;;;6.43;5.43;;;13.20;92.00;;;;;;4944901;29;20252;-66
2022/04/21 06:16:17;;;;;;;11.40;6.20;;;13.30;58.40;;;;;;4943352;29;20210;-66
2022/04/21 06:18:44;;;;;;;7.10;6.20;;;13.20;47.60;;;;;;4945504;28;20216;-62
2022/04/21 06:21:11;;;;;;;7.00;5.37;;;13.30;36.90;;;;;;4949423;29;20197;-62
2022/04/21 06:23:40;;;;;;;6.57;5.20;;;13.70;34.70;;;;;;4944193;29;20197;-62
2022/04/21 06:26:07;;;;;;;6.53;5.10;;;14.20;20.20;;;;;;4947856;28;20219;-61
2022/04/21 06:28:34;;;;;;;6.90;5.00;;;14.40;3.30;;;;;;4945335;29;20209;-62
2022/04/21 06:31:01;;;;;;;9.23;5.63;;;14.60;1.00;;;;;;4949047;29;20599;-62
2022/04/21 06:33:31;;;;;;;7.80;5.43;;;14.80;1.00;;;;;;4949860;28;20216;-62
2022/04/21 06:35:58;;;;;;;5.87;5.30;;;15.10;1.00;;;;;;4944628;29;20202;-65
2022/04/21 06:38:25;;;;;;;8.23;5.53;;;15.20;1.00;;;;;;4948523;28;20229;-67
2022/04/21 06:40:53;;;;;;;7.87;5.73;;;15.60;1.00;;;;;;4944663;29;20298;-65
2022/04/21 06:49:04;;;;;;;7.40;5.60;;;15.60;1.00;;;;;;4899324;29;20212;-65
2022/04/21 06:51:32;;;;;;;8.93;5.70;;;15.70;1.00;;;;;;4899517;29;20311;-63
2022/04/21 06:53:59;;;;;;;8.57;5.80;;;15.90;1.00;;;;;;4899508;29;20592;-62
2022/04/21 06:56:27;;;;;;;7.47;6.00;;;15.90;1.00;;;;;;4898414;29;20201;-64
2022/04/21 06:58:55;;;;;;;6.30;5.27;;;16.30;1.00;;;;;;4898577;29;20212;-64
2022/04/21 07:01:22;;;;;;;8.73;5.67;;;16.60;1.00;;;;;;4899640;29;20559;-65
2022/04/21 07:03:50;;;;;;;8.10;5.50;;;16.50;1.00;;;;;;4899172;29;20669;-65
2022/04/21 07:06:17;;;;;;;7.95;5.55;;;16.50;1.00;;;;;;4898896;29;20248;-66
2022/04/21 07:08:44;;;;;;;7.13;5.37;;;17.00;1.00;;;;;;4898080;29;20300;-66
2022/04/21 07:11:12;;;;;;;7.53;5.80;;;16.60;1.00;;;;;;4897900;29;20315;-66
2022/04/21 07:13:40;;;;;;;8.30;5.40;;;16.90;1.00;;;;;;4898045;29;20619;-65
2022/04/21 07:16:07;;;;;;;6.68;5.00;;;17.20;1.00;;;;;;4898836;29;20211;-65
2022/04/21 07:18:34;;;;;;;5.70;5.03;;;17.70;1.00;;;;;;4938141;29;20195;-65
2022/04/21 07:21:03;;;;;;;5.60;4.47;;;17.40;1.00;;;;;;4937859;29;20666;-66
2022/04/21 07:23:31;;;;;;;7.38;4.68;;;17.70;1.00;;;;;;4938199;29;20249;-66
2022/04/21 07:25:58;;;;;;;6.97;5.23;;;17.50;1.00;;;;;;4937818;29;20217;-66
2022/04/21 07:28:24;;;;;;;7.30;5.30;;;17.60;1.00;;;;;;4937570;29;20215;-63
2022/04/21 07:30:53;;;;;;;7.47;5.00;;;17.80;1.00;;;;;;4935792;29;20553;-65
2022/04/21 07:33:20;;;;;;;5.20;4.70;;;17.60;1.00;;;;;;4937004;29;20211;-65
2022/04/21 07:35:47;;;;;;;7.80;4.90;;;17.70;1.00;;;;;;4937582;29;20204;-65
2022/04/21 07:38:14;;;;;;;6.10;5.10;;;18.00;1.00;;;;;;4938005;29;20246;-65
2022/04/21 07:40:41;;;;;;;4.83;4.33;;;17.80;1.00;;;;;;4937764;29;20196;-66
2022/04/21 07:43:09;;;;;;;6.10;4.10;;;18.00;1.00;;;;;;4937425;29;20216;-64
2022/04/21 07:45:38;;;;;;;4.93;4.20;;;18.10;1.00;;;;;;4937084;29;20275;-63
2022/04/21 07:48:07;;;;;;;5.80;4.47;;;17.80;1.00;;;;;;4937231;29;20585;-63
2022/04/21 07:50:34;;;;;;;7.50;4.83;;;18.10;1.00;;;;;;4936880;29;20210;-64
2022/04/21 07:53:15;;;;;;;6.03;4.70;;;18.10;1.00;;;;;;4937618;29;20270;-64
2022/04/21 07:55:44;;;;;;;9.17;4.10;;;17.90;1.00;;;;;;4937733;29;20194;-65
2022/04/21 07:58:11;;;;;;;6.77;4.00;;;18.10;1.00;;;;;;4938017;29;20208;-65
2022/04/21 08:00:40;;;;;;;5.57;4.10;;;17.90;1.00;;;;;;4937250;29;20239;-67
2022/04/21 08:03:09;;;;;;;7.77;3.63;;;18.10;1.00;;;;;;4943623;29;20258;-64
2022/04/21 08:05:36;;;;;;;4.30;3.87;;;18.10;1.00;;;;;;4945330;29;20230;-64
2022/04/21 08:08:04;;;;;;;5.50;3.90;;;17.80;1.00;;;;;;4945918;28;20198;-64
2022/04/21 08:10:31;;;;;;;7.80;4.10;;;17.90;1.00;;;;;;4945823;29;20278;-65
2022/04/21 08:13:01;;;;;;;4.60;4.20;;;18.20;1.00;;;;;;4946440;28;20199;-71
2022/04/21 08:15:30;;;;;;;5.17;4.50;;;18.20;1.00;;;;;;4947190;29;20374;-65
2022/04/21 08:17:58;;;;;;;6.63;4.47;;;18.30;1.00;;;;;;4945506;29;20206;-65
2022/04/21 08:20:29;;;;;;;8.77;4.22;;;18.20;1.00;;;;;;4944898;28;20985;-64
2022/04/21 08:22:56;;;;;;;7.57;4.20;;;18.40;1.00;;;;;;4938699;28;20282;-65
2022/04/21 08:33:37;;;;;;;5.68;4.20;;;18.70;1.00;;;;;;4936484;29;20189;-64
2022/04/21 08:36:05;;;;;;;6.05;4.30;;;18.70;1.00;;;;;;4935589;29;20658;-65
2022/04/21 08:38:33;;;;;;;6.88;4.70;;;19.10;1.00;;;;;;4936021;29;20207;-65
2022/04/21 08:41:04;;;;;;;4.53;4.07;;;19.30;1.00;;;;;;4936192;29;20561;-65
2022/04/21 08:43:33;;;;;;;4.70;3.85;;;19.20;1.00;;;;;;4936394;29;20192;-65
2022/04/21 08:46:02;;;;;;;6.68;4.70;;;19.60;1.00;;;;;;4935979;29;20235;-65
2022/04/21 08:48:30;;;;;;;7.40;4.40;;;20.20;1.00;;;;;;4934316;29;20267;-65
2022/04/21 08:50:57;;;;;;;5.63;4.32;;;20.30;1.00;;;;;;4936238;29;20246;-65
2022/04/21 08:53:26;;;;;;;3.80;3.50;;;19.80;1.00;;;;;;4935792;29;20207;-65
2022/04/21 08:55:53;;;;;;;4.50;4.10;;;19.80;1.00;;;;;;4935583;29;20196;-66
2022/04/21 08:58:21;;;;;;;7.40;4.05;;;19.50;1.00;;;;;;4935608;29;20692;-65
2022/04/21 09:00:48;;;;;;;4.65;4.15;;;19.60;1.00;;;;;;4935733;29;20199;-65
2022/04/21 09:03:15;;;;;;;6.00;4.97;;;19.80;1.00;;;;;;4935718;29;20208;-65
2022/04/21 09:05:44;;;;;;;5.45;3.83;;;20.10;1.00;;;;;;4935539;29;20203;-62
2022/04/21 09:08:20;;;;;;;7.70;3.63;;;19.60;1.00;;;;;;4934947;29;20761;-62
2022/04/21 09:11:02;;;;;;;5.07;4.00;;;19.40;1.00;;;;;;4934394;29;20717;-63
2022/04/21 09:13:34;;;;;;;5.55;3.63;;;19.20;1.00;;;;;;4935075;29;20230;-62
2022/04/21 09:16:05;;;;;;;6.18;4.03;;;19.00;1.00;;;;;;4935469;29;20192;-62
2022/04/21 09:18:40;;;;;;;7.40;3.63;;;19.40;1.00;;;;;;4935432;29;20542;-63
2022/04/21 09:21:08;;;;;;;5.30;3.70;;;19.90;1.00;;;;;;4935187;29;20214;-62
2022/04/21 09:23:36;;;;;;;4.22;3.83;;;19.80;1.00;;;;;;4934598;29;20735;-62
2022/04/21 09:26:12;;;;;;;5.25;4.22;;;20.00;1.00;;;;;;4934831;29;20250;-63
2022/04/21 09:28:39;;;;;;;11.65;4.13;;;20.40;1.00;;;;;;4935102;29;20210;-63
2022/04/21 09:31:07;;;;;;;5.55;4.93;;;20.40;1.00;;;;;;4935115;29;20206;-63
2022/04/21 09:33:36;;;;;;;6.80;4.43;;;19.90;1.00;;;;;;4935247;29;20204;-62
2022/04/21 09:36:05;;;;;;;4.28;3.60;;;19.60;1.00;;;;;;4935276;29;20554;-63
2022/04/21 09:38:33;;;;;;;5.32;3.90;;;20.20;1.00;;;;;;4935282;29;20215;-63
2022/04/21 09:41:06;;;;;;;3.70;3.40;;;20.20;1.00;;;;;;4935391;29;20360;-63
2022/04/21 09:43:43;;;;;;;3.13;2.83;;;20.00;1.00;;;;;;4934751;29;20259;-63
2022/04/21 09:46:13;;;;;;;3.70;3.03;;;19.60;1.00;;;;;;4934619;29;20239;-62
2022/04/21 09:48:40;;;;;;;3.85;3.45;;;19.00;1.00;;;;;;4935179;29;20566;-63
2022/04/21 09:51:10;;;;;;;3.35;2.90;;;19.30;1.00;;;;;;4935104;29;20211;-65
2022/04/21 09:53:50;;;;;;;6.03;3.17;;;19.30;1.00;;;;;;4935005;29;20208;-65
2022/04/21 09:56:17;;;;;;;5.30;3.15;;;19.50;1.00;;;;;;4935678;29;20195;-65
2022/04/21 09:58:47;;;;;;;3.17;2.90;;;19.60;1.00;;;;;;4935834;29;20226;-65
2022/04/21 10:01:14;;;;;;;3.75;2.97;;;19.60;1.00;;;;;;4935396;29;20203;-64
2022/04/21 10:03:43;;;;;;;4.20;3.58;;;19.70;1.00;;;;;;4934911;29;20242;-64
2022/04/21 10:06:11;;;;;;;2.85;2.65;;;19.30;1.00;;;;;;4934891;29;20270;-64
2022/04/21 10:08:40;;;;;;;4.90;2.80;;;19.50;1.00;;;;;;4935215;29;20202;-65
2022/04/21 10:11:08;;;;;;;4.88;3.30;;;20.10;1.00;;;;;;4935314;29;20196;-65
2022/04/21 10:13:35;;;;;;;6.35;2.60;;;20.30;1.00;;;;;;4935065;29;20210;-65
2022/04/21 10:16:04;;;;;;;3.03;2.72;;;20.60;1.00;;;;;;4935078;29;20215;-65
2022/04/21 10:18:31;;;;;;;6.20;2.80;;;19.90;1.00;;;;;;4934653;29;20677;-65
2022/04/21 10:20:59;;;;;;;3.38;2.90;;;20.50;1.00;;;;;;4934935;29;20269;-65
2022/04/21 10:23:28;;;;;;;5.43;3.20;;;20.70;1.00;;;;;;4934996;29;20219;-65
2022/04/21 10:26:03;;;;;;;5.85;2.70;;;20.70;1.00;;;;;;4934917;29;20204;-65
2022/04/21 10:28:38;;;;;;;4.22;3.38;;;21.00;1.00;;;;;;4934738;29;20576;-65
2022/04/21 10:31:29;;;;;;;3.90;2.88;;;21.80;1.00;;;;;;4935105;29;20203;-65
2022/04/21 10:33:57;;;;;;;6.93;2.67;;;22.10;1.00;;;;;;4934948;29;20212;-64
2022/04/21 10:36:42;;;;;;;3.92;2.65;;;21.70;1.00;;;;;;4934563;29;20208;-64
2022/04/21 10:39:30;;;;;;;5.60;2.60;;;21.30;1.00;;;;;;4934586;29;20638;-64
2022/04/21 10:42:16;;;;;;;4.03;2.75;;;21.60;1.00;;;;;;4934557;29;20195;-64
2022/04/21 10:44:46;;;;;;;3.40;3.08;;;21.60;1.00;;;;;;4934774;29;20295;-64
2022/04/21 10:47:37;;;;;;;3.85;2.72;;;21.00;1.00;;;;;;4934398;29;20243;-64
2022/04/21 10:50:14;;;;;;;4.25;3.00;;;21.70;1.00;;;;;;4934677;29;20198;-64
2022/04/21 10:58:49;;;;;;;2.85;2.63;;;21.70;1.00;;;;;;4934473;29;20180;-64
2022/04/21 11:01:18;;;;;;;3.58;2.60;;;21.50;1.00;;;;;;4934366;29;20240;-63
2022/04/21 11:04:05;;;;;;;2.90;2.63;;;21.30;1.00;;;;;;4934424;29;20196;-63
2022/04/21 11:06:43;;;;;;;3.47;2.40;;;21.60;1.00;;;;;;4937755;29;20195;-62
2022/04/21 11:09:40;;;;;;;3.60;2.53;;;21.70;1.00;;;;;;4937791;29;20223;-63
2022/04/21 11:12:08;;;;;;;5.18;2.75;;;21.80;1.00;;;;;;4937670;29;20192;-62
2022/04/21 11:14:37;;;;;;;3.55;2.65;;;21.10;1.00;;;;;;4937866;29;20568;-62
2022/04/21 11:17:05;;;;;;;5.60;2.90;;;21.20;1.00;;;;;;4937454;29;20211;-63
2022/04/21 11:19:40;;;;;;;4.65;3.17;;;21.60;1.00;;;;;;4937967;29;20208;-63
2022/04/21 11:22:09;;;;;;;3.45;3.13;;;22.30;1.00;;;;;;4937850;29;20250;-62
2022/04/21 11:25:04;;;;;;;3.40;3.00;;;22.30;1.00;;;;;;4937812;29;20203;-63
2022/04/21 11:27:37;;;;;;;3.67;2.97;;;21.60;1.00;;;;;;4937521;29;20546;-63
2022/04/21 11:30:07;;;;;;;5.75;2.95;;;21.80;1.00;;;;;;4937544;29;20223;-63
2022/04/21 11:32:34;;;;;;;4.93;3.63;;;21.70;1.00;;;;;;4937623;29;20259;-63
2022/04/21 11:35:05;;;;;;;4.05;3.10;;;21.90;1.00;;;;;;4937236;29;20211;-63
2022/04/21 11:37:50;;;;;;;4.68;3.03;;;22.20;1.00;;;;;;4937315;29;20203;-63
2022/04/21 11:40:27;;;;;;;3.30;2.85;;;22.50;1.00;;;;;;4937636;29;20598;-63
2022/04/21 11:42:56;;;;;;;5.03;3.08;;;22.50;1.00;;;;;;4937458;29;20187;-64
2022/04/21 11:45:24;;;;;;;3.00;2.80;;;22.50;1.00;;;;;;4937208;29;20210;-62
2022/04/21 11:47:52;;;;;;;3.83;2.75;;;22.70;1.00;;;;;;4937086;29;20732;-63
2022/04/21 11:50:26;;;;;;;3.95;2.95;;;22.50;1.00;;;;;;4937432;29;20234;-64
2022/04/21 11:52:54;;;;;;;7.32;3.50;;;21.00;1.00;;;;;;4937079;29;20758;-64
2022/04/21 11:55:23;;;;;;;3.10;2.85;;;20.60;1.00;;;;;;4937393;29;20267;-63
2022/04/21 11:57:51;;;;;;;3.45;2.70;;;20.90;1.00;;;;;;4937206;29;20199;-63
2022/04/21 12:06:27;;;;;;;4.95;2.85;;;21.40;1.00;;;;;;4937059;29;20211;-63
2022/04/21 12:08:44;;;;;;;5.00;3.25;;;22.30;1.00;;;;;;4936717;29;20671;-63
2022/04/21 12:11:13;;;;;;;5.15;2.97;;;21.20;1.00;;;;;;4937011;29;20199;-64
2022/04/21 12:13:40;;;;;;;3.45;3.08;;;20.80;1.00;;;;;;4936827;29;20214;-63
2022/04/21 12:16:38;;;;;;;5.47;3.08;;;20.30;1.00;;;;;;4936365;29;20255;-63
2022/04/21 12:19:13;;;;;;;6.85;3.03;;;19.70;1.00;;;;;;4936625;29;20242;-61
2022/04/21 12:21:42;;;;;;;4.60;2.90;;;19.30;1.00;;;;;;4936505;29;20302;-61
2022/04/21 12:24:17;;;;;;;4.60;3.27;;;18.70;1.00;;;;;;4936979;29;20265;-63
2022/04/21 12:26:48;;;;;;;3.33;2.80;;;18.30;1.00;;;;;;4936960;29;20293;-64
2022/04/21 12:29:16;;;;;;;3.20;2.67;;;18.30;1.00;;;;;;4936945;29;20200;-63
2022/04/21 12:31:44;;;;;;;4.27;2.57;;;18.30;1.00;;;;;;4936714;29;20206;-62
2022/04/21 12:34:12;;;;;;;6.07;3.20;;;18.60;1.00;;;;;;4937142;29;20290;-61
2022/04/21 12:36:52;;;;;;;4.43;3.13;;;18.50;1.00;;;;;;4937172;29;20207;-64
2022/04/21 12:39:20;;;;;;;7.00;3.10;;;18.40;1.00;;;;;;4937155;29;20191;-62
2022/04/21 12:41:47;;;;;;;5.97;4.20;;;18.70;1.00;;;;;;4937056;29;20204;-63
2022/04/21 12:44:16;;;;;;;4.30;3.30;;;18.60;1.00;;;;;;4936861;29;20760;-64
2022/04/21 12:46:48;;;;;;;4.43;3.17;;;18.20;1.00;;;;;;4936738;29;20258;-64
2022/04/21 12:49:15;;;;;;;4.93;3.20;;;18.00;1.00;;;;;;4936381;29;20195;-67
2022/04/21 12:51:48;;;;;;;4.93;3.23;;;17.90;1.00;;;;;;4937093;29;20208;-65
2022/04/21 12:54:27;;;;;;;4.27;3.00;;;17.70;1.00;;;;;;4936574;29;20188;-64
2022/04/21 12:56:55;;;;;;;5.27;3.00;;;17.70;1.00;;;;;;4936651;29;20215;-64
2022/04/21 12:59:22;;;;;;;4.77;3.13;;;17.70;1.00;;;;;;4936443;29;20215;-64
2022/04/21 13:01:49;;;;;;;6.70;3.33;;;17.80;1.00;;;;;;4937406;29;20557;-66
2022/04/21 13:04:16;;;;;;;4.27;2.90;;;18.00;1.00;;;;;;4936477;29;20207;-63
2022/04/21 13:06:44;;;;;;;3.40;3.10;;;18.30;1.00;;;;;;4936156;29;20215;-64
2022/04/21 13:09:11;;;;;;;5.40;3.13;;;18.40;1.00;;;;;;4936116;29;20769;-65
2022/04/21 13:11:39;;;;;;;6.13;2.80;;;18.50;1.00;;;;;;4936449;29;20196;-65
2022/04/21 13:14:06;;;;;;;4.40;2.97;;;18.50;1.00;;;;;;4936112;29;20210;-64
2022/04/21 13:16:33;;;;;;;5.10;3.40;;;19.10;1.00;;;;;;4936195;29;20196;-65
2022/04/21 13:19:00;;;;;;;3.30;2.78;;;19.40;1.00;;;;;;4935480;29;20692;-62
2022/04/21 13:24:20;;;;;;;4.53;3.33;;;19.30;1.00;;;;;;4914482;29;20204;-65
2022/04/21 13:26:48;;;;;;;15.00;5.03;;;19.40;1.00;;;;;;4914272;29;20212;-66
2022/04/21 13:29:15;;;;;;;5.63;3.40;;;19.30;1.00;;;;;;4913471;29;20222;-65
2022/04/21 13:34:27;;;;;;;5.03;3.53;;;19.10;1.00;;;;;;4914141;29;20208;-63
2022/04/21 13:36:53;;;;;;;5.87;3.40;;;19.60;1.00;;;;;;4914185;29;20279;-64
2022/04/21 13:39:20;;;;;;;7.82;4.82;;;19.50;1.00;;;;;;4914713;29;20208;-64
2022/04/21 13:41:49;;;;;;;10.67;6.23;;;19.00;1.00;;;;;;4914627;29;20214;-67
2022/04/21 13:44:16;;;;;;;9.77;4.23;;;18.70;1.00;;;;;;4914665;29;20312;-67
2022/04/21 13:46:44;;;;;;;4.67;3.80;;;18.60;1.00;;;;;;4916245;29;20339;-68
2022/04/21 13:49:11;;;;;;;4.40;3.73;;;18.60;1.00;;;;;;4914311;29;20701;-65
2022/04/21 13:51:39;;;;;;;7.33;4.20;;;18.60;1.00;;;;;;4914752;29;20244;-65
2022/04/21 13:54:07;;;;;;;5.60;3.80;;;18.50;1.00;;;;;;4914739;29;20307;-66
2022/04/21 13:56:35;;;;;;;7.17;3.80;;;18.30;1.00;;;;;;4914552;29;20215;-66
2022/04/21 13:59:05;;;;;;;6.13;4.33;;;18.60;1.00;;;;;;4915623;29;20245;-65